Pacific Princess — ZCDS3 — position and weather

sailwx.info

Track history (hours):
 
Tides and Currents Weather Stations Pressure Air Temp Water Temp Dewpoint Dewpoint Depression Visibility Wind Speed Wind Dir Waves Ship Positions

Pacific Princess (Bermuda)

Last reported at 2014-Sep-17 09:19 UTC. Time now 2014-Nov-25 23:13 UTC.
Position N 48°31' W 125°01'.
Warning: this ship's position is months out of date.

Length 180.5 m; beam 25.6 m; draft 6 m.

Type: Passenger vessel. MMSI: 310504000.

Date/timePositionNaut miles runAvg speedWind from/ knotsBaromVisibWave heightAir tempDewpointWater temp
2014-Sep-17 09:19N 48°31' W 125°01'1317.5
2014-Sep-17 08:34N 48°30' W 124°41'1818.0
2014-Sep-17 07:34N 48°23' W 124°16'1817.6
2014-Sep-17 06:33N 48°17' W 123°51'1615.4
2014-Sep-17 05:33N 48°19' W 123°28'1110.7
2014-Sep-17 04:33N 48°24' W 123°14'1616.0
2014-Sep-17 03:33N 48°40' W 123°15'1413.7
2014-Sep-17 02:33N 48°51' W 123°02'1716.9
2014-Sep-17 01:34N 49°02' W 123°21'1615.7
2014-Sep-17 00:33N 49°18' W 123°18'8 7.7
2014-Sep-16 23:33N 49°17' W 123°07'0 0.0
2014-Sep-16 22:33N 49°17' W 123°07'0 0.0
2014-Sep-16 21:33N 49°17' W 123°07'0 0.0
2014-Sep-16 20:33N 49°17' W 123°07'0 0.0
2014-Sep-16 19:33N 49°17' W 123°07'0 0.0
2014-Sep-16 18:33N 49°17' W 123°07'0 0.0
2014-Sep-16 17:33N 49°17' W 123°07'0 0.0
2014-Sep-16 16:33N 49°17' W 123°07'0 0.0
2014-Sep-16 15:33N 49°17' W 123°07'0 0.0
2014-Sep-16 14:33N 49°17' W 123°07'3 3.4
2014-Sep-16 13:33N 49°19' W 123°11'1111.2
2014-Sep-16 12:33N 49°18' W 123°28'1211.6
2014-Sep-16 11:33N 49°20' W 123°46'1212.1
2014-Sep-16 10:33N 49°23' W 124°04'1212.1
2014-Sep-16 09:32N 49°26' W 124°22'1212.1
2014-Sep-16 08:33N 49°35' W 124°36'1212.4
2014-Sep-16 07:33N 49°43' W 124°48'1212.3
2014-Sep-16 06:33N 49°52' W 125°02'2512.3
2014-Sep-16 04:32N 50°13' W 125°23'4112.8
2014-Sep-16 01:18N 50°30' W 126°22'1512.7
2014-Sep-16 00:08N 50°36' W 126°43'915.1
2014-Sep-15 23:33N 50°41' W 126°54'1514.8
2014-Sep-15 22:32N 50°46' W 127°17'1414.7
2014-Sep-15 21:33N 50°53' W 127°36'1312.9
2014-Sep-15 20:31N 51°01' W 127°53'  
2014-Sep-13 15:34N 58°40' W 136°10'1515.0
2014-Sep-13 14:33N 58°26' W 135°59'8 8.4
2014-Sep-13 13:33N 58°19' W 135°51'1010.4
2014-Sep-13 12:33N 58°15' W 135°32'  
2014-Sep-10 14:31N 51°02' W 127°53'1617.0
2014-Sep-10 13:33N 50°52' W 127°33'2020.4
2014-Sep-10 12:33N 50°44' W 127°03'1817.2
2014-Sep-10 11:31N 50°32' W 126°41'7913.0
2014-Sep-10 05:28N 49°50' W 124°57'2310.9
2014-Sep-10 03:19N 49°33' W 124°33'910.7
2014-Sep-10 02:31N 49°27' W 124°23'1311.0
2014-Sep-10 01:22N 49°23' W 124°04'2411.3
2014-Sep-09 23:14N 49°19' W 123°28'812.4
2014-Sep-09 22:33N 49°19' W 123°15'6 5.8
2014-Sep-09 21:33N 49°17' W 123°06'0 0.0
2014-Sep-09 20:33N 49°17' W 123°06'0 0.0
2014-Sep-09 19:33N 49°17' W 123°06'0 0.0
2014-Sep-09 18:33N 49°17' W 123°06'0 0.0
2014-Sep-09 17:33N 49°17' W 123°06'0 0.0
2014-Sep-09 16:33N 49°17' W 123°06'0 0.0
2014-Sep-09 15:33N 49°17' W 123°06'0 0.0
2014-Sep-09 14:33N 49°17' W 123°06'1 1.5
2014-Sep-09 13:33N 49°19' W 123°08'1110.8
2014-Sep-09 12:33N 49°19' W 123°24'1413.7
2014-Sep-09 11:31N 49°21' W 123°46'1515.5
2014-Sep-09 10:33N 49°23' W 124°08'1615.5
2014-Sep-09 09:33N 49°30' W 124°30'1818.1
2014-Sep-09 08:33N 49°44' W 124°48'9313.2
2014-Sep-09 01:32N 50°37' W 126°46'1614.7
2014-Sep-09 00:27N 50°44' W 127°08'1314.4
2014-Sep-08 23:33N 50°50' W 127°27'1413.9
2014-Sep-08 22:33N 50°57' W 127°45'  
Track history (hours):
 
Tides and Currents Weather Stations Pressure Air Temp Water Temp Dewpoint Dewpoint Depression Visibility Wind Speed Wind Dir Waves Ship Positions

Pacific Princess (Bermuda)

Last reported at 2014-Sep-17 09:19 UTC. Time now 2014-Nov-25 23:13 UTC.
Position N 48°31' W 125°01'.
Warning: this ship's position is months out of date.

Length 180.5 m; beam 25.6 m; draft 6 m.

Type: Passenger vessel. MMSI: 310504000.

Date/timePositionNaut miles runAvg speedWind from/ knotsBaromVisibWave heightAir tempDewpointWater temp
2014-Sep-17 09:19N 48°31' W 125°01'1317.5
2014-Sep-17 08:34N 48°30' W 124°41'1818.0
2014-Sep-17 07:34N 48°23' W 124°16'1817.6
2014-Sep-17 06:33N 48°17' W 123°51'1615.4
2014-Sep-17 05:33N 48°19' W 123°28'1110.7
2014-Sep-17 04:33N 48°24' W 123°14'1616.0
2014-Sep-17 03:33N 48°40' W 123°15'1413.7
2014-Sep-17 02:33N 48°51' W 123°02'1716.9
2014-Sep-17 01:34N 49°02' W 123°21'1615.7
2014-Sep-17 00:33N 49°18' W 123°18'8 7.7
2014-Sep-16 23:33N 49°17' W 123°07'0 0.0
2014-Sep-16 22:33N 49°17' W 123°07'0 0.0
2014-Sep-16 21:33N 49°17' W 123°07'0 0.0
2014-Sep-16 20:33N 49°17' W 123°07'0 0.0
2014-Sep-16 19:33N 49°17' W 123°07'0 0.0
2014-Sep-16 18:33N 49°17' W 123°07'0 0.0
2014-Sep-16 17:33N 49°17' W 123°07'0 0.0
2014-Sep-16 16:33N 49°17' W 123°07'0 0.0
2014-Sep-16 15:33N 49°17' W 123°07'0 0.0
2014-Sep-16 14:33N 49°17' W 123°07'3 3.4
2014-Sep-16 13:33N 49°19' W 123°11'1111.2
2014-Sep-16 12:33N 49°18' W 123°28'1211.6
2014-Sep-16 11:33N 49°20' W 123°46'1212.1
2014-Sep-16 10:33N 49°23' W 124°04'1212.1
2014-Sep-16 09:32N 49°26' W 124°22'1212.1
2014-Sep-16 08:33N 49°35' W 124°36'1212.4
2014-Sep-16 07:33N 49°43' W 124°48'1212.3
2014-Sep-16 06:33N 49°52' W 125°02'2512.3
2014-Sep-16 04:32N 50°13' W 125°23'4112.8
2014-Sep-16 01:18N 50°30' W 126°22'1512.7
2014-Sep-16 00:08N 50°36' W 126°43'915.1
2014-Sep-15 23:33N 50°41' W 126°54'1514.8
2014-Sep-15 22:32N 50°46' W 127°17'1414.7
2014-Sep-15 21:33N 50°53' W 127°36'1312.9
2014-Sep-15 20:31N 51°01' W 127°53'  
2014-Sep-13 15:34N 58°40' W 136°10'1515.0
2014-Sep-13 14:33N 58°26' W 135°59'8 8.4
2014-Sep-13 13:33N 58°19' W 135°51'1010.4
2014-Sep-13 12:33N 58°15' W 135°32'  
2014-Sep-10 14:31N 51°02' W 127°53'1617.0
2014-Sep-10 13:33N 50°52' W 127°33'2020.4
2014-Sep-10 12:33N 50°44' W 127°03'1817.2
2014-Sep-10 11:31N 50°32' W 126°41'7913.0
2014-Sep-10 05:28N 49°50' W 124°57'2310.9
2014-Sep-10 03:19N 49°33' W 124°33'910.7
2014-Sep-10 02:31N 49°27' W 124°23'1311.0
2014-Sep-10 01:22N 49°23' W 124°04'2411.3
2014-Sep-09 23:14N 49°19' W 123°28'812.4
2014-Sep-09 22:33N 49°19' W 123°15'6 5.8
2014-Sep-09 21:33N 49°17' W 123°06'0 0.0
2014-Sep-09 20:33N 49°17' W 123°06'0 0.0
2014-Sep-09 19:33N 49°17' W 123°06'0 0.0
2014-Sep-09 18:33N 49°17' W 123°06'0 0.0
2014-Sep-09 17:33N 49°17' W 123°06'0 0.0
2014-Sep-09 16:33N 49°17' W 123°06'0 0.0
2014-Sep-09 15:33N 49°17' W 123°06'0 0.0
2014-Sep-09 14:33N 49°17' W 123°06'1 1.5
2014-Sep-09 13:33N 49°19' W 123°08'1110.8
2014-Sep-09 12:33N 49°19' W 123°24'1413.7
2014-Sep-09 11:31N 49°21' W 123°46'1515.5
2014-Sep-09 10:33N 49°23' W 124°08'1615.5
2014-Sep-09 09:33N 49°30' W 124°30'1818.1
2014-Sep-09 08:33N 49°44' W 124°48'9313.2
2014-Sep-09 01:32N 50°37' W 126°46'1614.7
2014-Sep-09 00:27N 50°44' W 127°08'1314.4
2014-Sep-08 23:33N 50°50' W 127°27'1413.9
2014-Sep-08 22:33N 50°57' W 127°45'  

Dump ship's entire track history